sensor_id;sensor_type;location;lat;lon;timestamp;P1;durP1;ratioP1;P2;durP2;ratioP2
16286;SDS011;8251;53.568;10.018;2024-03-08T00:01:52;15.50;;;8.90;;
16286;SDS011;8251;53.568;10.018;2024-03-08T00:04:19;19.13;;;8.97;;
16286;SDS011;8251;53.568;10.018;2024-03-08T00:06:46;17.50;;;8.60;;
16286;SDS011;8251;53.568;10.018;2024-03-08T00:09:14;17.37;;;8.50;;
16286;SDS011;8251;53.568;10.018;2024-03-08T00:11:41;16.00;;;8.87;;
16286;SDS011;8251;53.568;10.018;2024-03-08T00:14:09;17.53;;;9.20;;
16286;SDS011;8251;53.568;10.018;2024-03-08T00:16:39;20.10;;;8.77;;
16286;SDS011;8251;53.568;10.018;2024-03-08T00:19:14;16.27;;;9.03;;
16286;SDS011;8251;53.568;10.018;2024-03-08T00:21:41;18.73;;;8.40;;
16286;SDS011;8251;53.568;10.018;2024-03-08T00:24:10;13.63;;;8.07;;
16286;SDS011;8251;53.568;10.018;2024-03-08T00:26:38;16.17;;;9.10;;
16286;SDS011;8251;53.568;10.018;2024-03-08T00:29:07;17.43;;;8.43;;
16286;SDS011;8251;53.568;10.018;2024-03-08T00:31:35;14.53;;;8.33;;
16286;SDS011;8251;53.568;10.018;2024-03-08T00:34:01;20.77;;;9.07;;
16286;SDS011;8251;53.568;10.018;2024-03-08T00:36:28;19.10;;;9.03;;
16286;SDS011;8251;53.568;10.018;2024-03-08T00:38:58;16.47;;;8.90;;
16286;SDS011;8251;53.568;10.018;2024-03-08T00:41:25;16.70;;;9.37;;
16286;SDS011;8251;53.568;10.018;2024-03-08T00:43:54;16.57;;;8.83;;
16286;SDS011;8251;53.568;10.018;2024-03-08T00:46:20;17.10;;;9.17;;
16286;SDS011;8251;53.568;10.018;2024-03-08T00:48:48;17.30;;;9.57;;
16286;SDS011;8251;53.568;10.018;2024-03-08T00:51:17;15.97;;;8.77;;
16286;SDS011;8251;53.568;10.018;2024-03-08T00:53:44;20.53;;;8.77;;
16286;SDS011;8251;53.568;10.018;2024-03-08T00:56:12;15.37;;;9.10;;
16286;SDS011;8251;53.568;10.018;2024-03-08T00:58:39;14.50;;;8.47;;
16286;SDS011;8251;53.568;10.018;2024-03-08T01:01:07;19.37;;;9.43;;
16286;SDS011;8251;53.568;10.018;2024-03-08T01:03:34;17.00;;;8.77;;
16286;SDS011;8251;53.568;10.018;2024-03-08T01:06:02;16.30;;;8.77;;
16286;SDS011;8251;53.568;10.018;2024-03-08T01:08:29;16.00;;;8.63;;
16286;SDS011;8251;53.568;10.018;2024-03-08T01:10:58;16.63;;;9.07;;
16286;SDS011;8251;53.568;10.018;2024-03-08T01:13:26;15.03;;;8.47;;
16286;SDS011;8251;53.568;10.018;2024-03-08T01:15:54;18.43;;;10.07;;
16286;SDS011;8251;53.568;10.018;2024-03-08T01:18:23;15.47;;;7.77;;
16286;SDS011;8251;53.568;10.018;2024-03-08T01:20:50;19.40;;;8.83;;
16286;SDS011;8251;53.568;10.018;2024-03-08T01:23:17;19.70;;;9.67;;
16286;SDS011;8251;53.568;10.018;2024-03-08T01:25:44;16.17;;;8.40;;
16286;SDS011;8251;53.568;10.018;2024-03-08T01:28:11;17.43;;;8.70;;
16286;SDS011;8251;53.568;10.018;2024-03-08T01:30:39;17.17;;;8.63;;
16286;SDS011;8251;53.568;10.018;2024-03-08T01:33:09;19.30;;;8.13;;
16286;SDS011;8251;53.568;10.018;2024-03-08T01:35:37;17.27;;;8.37;;
16286;SDS011;8251;53.568;10.018;2024-03-08T01:38:08;18.47;;;9.20;;
16286;SDS011;8251;53.568;10.018;2024-03-08T01:40:35;19.73;;;9.10;;
16286;SDS011;8251;53.568;10.018;2024-03-08T01:43:15;17.97;;;8.60;;
16286;SDS011;8251;53.568;10.018;2024-03-08T01:45:44;19.33;;;8.63;;
16286;SDS011;8251;53.568;10.018;2024-03-08T01:48:11;18.47;;;8.97;;
16286;SDS011;8251;53.568;10.018;2024-03-08T01:50:41;18.57;;;9.57;;
16286;SDS011;8251;53.568;10.018;2024-03-08T01:53:08;18.03;;;9.93;;
16286;SDS011;8251;53.568;10.018;2024-03-08T01:55:36;19.00;;;8.70;;
16286;SDS011;8251;53.568;10.018;2024-03-08T01:58:06;19.20;;;9.60;;
16286;SDS011;8251;53.568;10.018;2024-03-08T02:00:42;16.57;;;8.90;;
16286;SDS011;8251;53.568;10.018;2024-03-08T02:03:11;17.33;;;9.73;;
16286;SDS011;8251;53.568;10.018;2024-03-08T02:05:38;18.23;;;9.60;;
16286;SDS011;8251;53.568;10.018;2024-03-08T02:08:10;16.23;;;8.93;;
16286;SDS011;8251;53.568;10.018;2024-03-08T02:10:39;17.20;;;8.83;;
16286;SDS011;8251;53.568;10.018;2024-03-08T02:13:09;16.43;;;8.67;;
16286;SDS011;8251;53.568;10.018;2024-03-08T02:15:53;22.77;;;10.77;;
16286;SDS011;8251;53.568;10.018;2024-03-08T02:18:21;16.40;;;9.10;;
16286;SDS011;8251;53.568;10.018;2024-03-08T02:20:54;18.37;;;9.00;;
16286;SDS011;8251;53.568;10.018;2024-03-08T02:23:22;15.80;;;9.20;;
16286;SDS011;8251;53.568;10.018;2024-03-08T02:25:49;18.17;;;10.47;;
16286;SDS011;8251;53.568;10.018;2024-03-08T02:28:17;16.53;;;9.50;;
16286;SDS011;8251;53.568;10.018;2024-03-08T02:30:45;18.30;;;9.27;;
16286;SDS011;8251;53.568;10.018;2024-03-08T02:33:14;17.37;;;9.57;;
16286;SDS011;8251;53.568;10.018;2024-03-08T02:35:42;16.47;;;8.87;;
16286;SDS011;8251;53.568;10.018;2024-03-08T02:38:12;16.93;;;9.33;;
16286;SDS011;8251;53.568;10.018;2024-03-08T02:40:41;19.93;;;9.33;;
16286;SDS011;8251;53.568;10.018;2024-03-08T02:43:08;18.27;;;8.87;;
16286;SDS011;8251;53.568;10.018;2024-03-08T02:45:35;17.83;;;9.73;;
16286;SDS011;8251;53.568;10.018;2024-03-08T02:48:02;18.90;;;9.23;;
16286;SDS011;8251;53.568;10.018;2024-03-08T02:50:31;16.27;;;9.40;;
16286;SDS011;8251;53.568;10.018;2024-03-08T02:52:58;22.50;;;10.53;;
16286;SDS011;8251;53.568;10.018;2024-03-08T02:55:26;22.17;;;10.13;;
16286;SDS011;8251;53.568;10.018;2024-03-08T02:57:54;21.03;;;9.00;;
16286;SDS011;8251;53.568;10.018;2024-03-08T03:00:21;19.10;;;9.30;;
16286;SDS011;8251;53.568;10.018;2024-03-08T03:02:49;16.77;;;8.87;;
16286;SDS011;8251;53.568;10.018;2024-03-08T03:05:18;19.10;;;9.13;;
16286;SDS011;8251;53.568;10.018;2024-03-08T03:07:46;17.67;;;9.30;;
16286;SDS011;8251;53.568;10.018;2024-03-08T03:10:13;14.60;;;9.43;;
16286;SDS011;8251;53.568;10.018;2024-03-08T03:12:44;18.80;;;8.97;;
16286;SDS011;8251;53.568;10.018;2024-03-08T03:15:13;17.63;;;9.40;;
16286;SDS011;8251;53.568;10.018;2024-03-08T03:17:45;24.20;;;9.70;;
16286;SDS011;8251;53.568;10.018;2024-03-08T03:20:13;19.03;;;9.77;;
16286;SDS011;8251;53.568;10.018;2024-03-08T03:22:47;19.87;;;9.33;;
16286;SDS011;8251;53.568;10.018;2024-03-08T03:25:17;18.27;;;9.90;;
16286;SDS011;8251;53.568;10.018;2024-03-08T03:27:51;18.30;;;9.53;;
16286;SDS011;8251;53.568;10.018;2024-03-08T03:30:22;15.50;;;9.20;;
16286;SDS011;8251;53.568;10.018;2024-03-08T03:32:53;18.13;;;9.70;;
16286;SDS011;8251;53.568;10.018;2024-03-08T03:35:22;21.03;;;9.37;;
16286;SDS011;8251;53.568;10.018;2024-03-08T03:37:49;17.80;;;10.43;;
16286;SDS011;8251;53.568;10.018;2024-03-08T03:40:26;19.63;;;9.80;;
16286;SDS011;8251;53.568;10.018;2024-03-08T03:42:56;21.77;;;10.37;;
16286;SDS011;8251;53.568;10.018;2024-03-08T03:45:25;24.60;;;9.37;;
16286;SDS011;8251;53.568;10.018;2024-03-08T03:47:54;18.43;;;9.87;;
16286;SDS011;8251;53.568;10.018;2024-03-08T03:50:21;17.70;;;9.57;;
16286;SDS011;8251;53.568;10.018;2024-03-08T03:52:48;20.60;;;9.27;;
16286;SDS011;8251;53.568;10.018;2024-03-08T03:55:17;14.73;;;8.33;;
16286;SDS011;8251;53.568;10.018;2024-03-08T03:57:46;19.07;;;10.83;;
16286;SDS011;8251;53.568;10.018;2024-03-08T04:00:15;20.47;;;9.90;;
16286;SDS011;8251;53.568;10.018;2024-03-08T04:02:42;20.20;;;9.13;;
16286;SDS011;8251;53.568;10.018;2024-03-08T04:05:10;16.83;;;9.50;;
16286;SDS011;8251;53.568;10.018;2024-03-08T04:07:37;18.73;;;9.10;;
16286;SDS011;8251;53.568;10.018;2024-03-08T04:10:05;19.97;;;9.30;;
16286;SDS011;8251;53.568;10.018;2024-03-08T04:12:35;18.60;;;9.73;;
16286;SDS011;8251;53.568;10.018;2024-03-08T04:15:03;16.57;;;8.63;;
16286;SDS011;8251;53.568;10.018;2024-03-08T04:17:33;21.10;;;9.03;;
16286;SDS011;8251;53.568;10.018;2024-03-08T04:20:02;17.70;;;10.00;;
16286;SDS011;8251;53.568;10.018;2024-03-08T04:22:34;20.80;;;10.57;;
16286;SDS011;8251;53.568;10.018;2024-03-08T04:25:01;20.83;;;10.33;;
16286;SDS011;8251;53.568;10.018;2024-03-08T04:27:28;18.43;;;10.10;;
16286;SDS011;8251;53.568;10.018;2024-03-08T04:29:55;19.87;;;10.73;;
16286;SDS011;8251;53.568;10.018;2024-03-08T04:32:23;19.37;;;10.27;;
16286;SDS011;8251;53.568;10.018;2024-03-08T04:34:52;19.90;;;9.57;;
16286;SDS011;8251;53.568;10.018;2024-03-08T04:37:19;21.07;;;10.43;;
16286;SDS011;8251;53.568;10.018;2024-03-08T04:39:47;19.63;;;9.87;;
16286;SDS011;8251;53.568;10.018;2024-03-08T04:42:15;21.13;;;9.77;;
16286;SDS011;8251;53.568;10.018;2024-03-08T04:44:43;20.63;;;9.80;;
16286;SDS011;8251;53.568;10.018;2024-03-08T04:47:10;20.93;;;10.67;;
16286;SDS011;8251;53.568;10.018;2024-03-08T04:49:38;22.20;;;10.83;;
16286;SDS011;8251;53.568;10.018;2024-03-08T04:52:09;20.00;;;9.30;;
16286;SDS011;8251;53.568;10.018;2024-03-08T04:54:37;20.13;;;10.60;;
16286;SDS011;8251;53.568;10.018;2024-03-08T04:57:04;23.23;;;10.17;;
16286;SDS011;8251;53.568;10.018;2024-03-08T04:59:32;20.07;;;10.20;;
16286;SDS011;8251;53.568;10.018;2024-03-08T05:02:00;23.63;;;9.63;;
16286;SDS011;8251;53.568;10.018;2024-03-08T05:04:27;17.80;;;10.20;;
16286;SDS011;8251;53.568;10.018;2024-03-08T05:06:55;25.80;;;10.10;;
16286;SDS011;8251;53.568;10.018;2024-03-08T05:09:23;18.90;;;9.57;;
16286;SDS011;8251;53.568;10.018;2024-03-08T05:11:51;19.73;;;10.37;;
16286;SDS011;8251;53.568;10.018;2024-03-08T05:14:18;25.43;;;10.97;;
16286;SDS011;8251;53.568;10.018;2024-03-08T05:16:53;16.77;;;9.50;;
16286;SDS011;8251;53.568;10.018;2024-03-08T05:19:20;23.97;;;11.10;;
16286;SDS011;8251;53.568;10.018;2024-03-08T05:21:47;18.30;;;9.37;;
16286;SDS011;8251;53.568;10.018;2024-03-08T05:24:15;19.67;;;9.27;;
16286;SDS011;8251;53.568;10.018;2024-03-08T05:26:44;20.87;;;10.13;;
16286;SDS011;8251;53.568;10.018;2024-03-08T05:29:12;24.33;;;10.93;;
16286;SDS011;8251;53.568;10.018;2024-03-08T05:31:45;25.33;;;10.27;;
16286;SDS011;8251;53.568;10.018;2024-03-08T05:34:14;17.47;;;9.27;;
16286;SDS011;8251;53.568;10.018;2024-03-08T05:36:42;23.53;;;11.43;;
16286;SDS011;8251;53.568;10.018;2024-03-08T05:39:10;20.37;;;9.77;;
16286;SDS011;8251;53.568;10.018;2024-03-08T05:41:38;22.73;;;9.50;;
16286;SDS011;8251;53.568;10.018;2024-03-08T05:44:06;21.43;;;10.87;;
16286;SDS011;8251;53.568;10.018;2024-03-08T05:46:34;25.43;;;10.17;;
16286;SDS011;8251;53.568;10.018;2024-03-08T05:49:02;20.63;;;9.87;;
16286;SDS011;8251;53.568;10.018;2024-03-08T05:51:30;18.47;;;10.67;;
16286;SDS011;8251;53.568;10.018;2024-03-08T05:54:01;17.90;;;10.30;;
16286;SDS011;8251;53.568;10.018;2024-03-08T05:56:28;19.40;;;9.13;;
16286;SDS011;8251;53.568;10.018;2024-03-08T05:58:55;22.77;;;10.60;;
16286;SDS011;8251;53.568;10.018;2024-03-08T06:01:24;22.97;;;10.53;;
16286;SDS011;8251;53.568;10.018;2024-03-08T06:03:53;20.33;;;10.80;;
16286;SDS011;8251;53.568;10.018;2024-03-08T06:06:21;28.43;;;11.23;;
16286;SDS011;8251;53.568;10.018;2024-03-08T06:08:49;20.60;;;10.53;;
16286;SDS011;8251;53.568;10.018;2024-03-08T06:11:16;18.60;;;9.57;;
16286;SDS011;8251;53.568;10.018;2024-03-08T06:13:44;20.97;;;9.80;;
16286;SDS011;8251;53.568;10.018;2024-03-08T06:16:12;24.87;;;11.33;;
16286;SDS011;8251;53.568;10.018;2024-03-08T06:18:41;24.67;;;11.20;;
16286;SDS011;8251;53.568;10.018;2024-03-08T06:21:08;17.83;;;9.97;;
16286;SDS011;8251;53.568;10.018;2024-03-08T06:23:44;19.20;;;9.23;;
16286;SDS011;8251;53.568;10.018;2024-03-08T06:26:10;18.03;;;9.70;;
16286;SDS011;8251;53.568;10.018;2024-03-08T06:28:37;22.10;;;10.87;;
16286;SDS011;8251;53.568;10.018;2024-03-08T06:31:04;22.10;;;10.97;;
16286;SDS011;8251;53.568;10.018;2024-03-08T06:33:33;20.23;;;10.20;;
16286;SDS011;8251;53.568;10.018;2024-03-08T06:36:01;24.10;;;10.53;;
16286;SDS011;8251;53.568;10.018;2024-03-08T06:38:30;17.33;;;10.20;;
16286;SDS011;8251;53.568;10.018;2024-03-08T06:40:58;25.73;;;11.47;;
16286;SDS011;8251;53.568;10.018;2024-03-08T06:43:28;20.20;;;9.47;;
16286;SDS011;8251;53.568;10.018;2024-03-08T06:45:59;19.07;;;10.33;;
16286;SDS011;8251;53.568;10.018;2024-03-08T06:48:27;24.67;;;10.97;;
16286;SDS011;8251;53.568;10.018;2024-03-08T06:50:54;19.37;;;9.97;;
16286;SDS011;8251;53.568;10.018;2024-03-08T06:53:23;19.63;;;10.33;;
16286;SDS011;8251;53.568;10.018;2024-03-08T06:55:50;19.90;;;9.93;;
16286;SDS011;8251;53.568;10.018;2024-03-08T06:58:20;22.97;;;12.03;;
16286;SDS011;8251;53.568;10.018;2024-03-08T07:00:48;20.90;;;11.03;;
16286;SDS011;8251;53.568;10.018;2024-03-08T07:03:18;22.33;;;10.80;;
16286;SDS011;8251;53.568;10.018;2024-03-08T07:05:48;25.83;;;10.53;;
16286;SDS011;8251;53.568;10.018;2024-03-08T07:08:15;25.00;;;11.67;;
16286;SDS011;8251;53.568;10.018;2024-03-08T07:10:43;22.57;;;10.43;;
16286;SDS011;8251;53.568;10.018;2024-03-08T07:13:12;19.53;;;10.67;;
16286;SDS011;8251;53.568;10.018;2024-03-08T07:15:38;20.80;;;11.10;;
16286;SDS011;8251;53.568;10.018;2024-03-08T07:18:06;18.97;;;10.53;;
16286;SDS011;8251;53.568;10.018;2024-03-08T07:20:39;21.70;;;11.43;;
16286;SDS011;8251;53.568;10.018;2024-03-08T07:23:08;21.03;;;11.63;;
16286;SDS011;8251;53.568;10.018;2024-03-08T07:26:00;25.17;;;11.50;;
16286;SDS011;8251;53.568;10.018;2024-03-08T07:28:36;23.33;;;11.77;;
16286;SDS011;8251;53.568;10.018;2024-03-08T07:31:05;21.37;;;12.63;;
16286;SDS011;8251;53.568;10.018;2024-03-08T07:33:42;23.20;;;11.70;;
16286;SDS011;8251;53.568;10.018;2024-03-08T07:36:11;20.27;;;10.97;;
16286;SDS011;8251;53.568;10.018;2024-03-08T07:38:40;20.70;;;11.80;;
16286;SDS011;8251;53.568;10.018;2024-03-08T07:41:10;19.83;;;10.27;;
16286;SDS011;8251;53.568;10.018;2024-03-08T07:43:39;21.30;;;11.03;;
16286;SDS011;8251;53.568;10.018;2024-03-08T07:46:09;22.57;;;11.20;;
16286;SDS011;8251;53.568;10.018;2024-03-08T07:48:38;21.43;;;10.87;;
16286;SDS011;8251;53.568;10.018;2024-03-08T07:51:10;21.40;;;11.30;;
16286;SDS011;8251;53.568;10.018;2024-03-08T07:53:39;24.30;;;11.63;;
16286;SDS011;8251;53.568;10.018;2024-03-08T07:56:14;20.10;;;11.57;;
16286;SDS011;8251;53.568;10.018;2024-03-08T07:58:43;19.13;;;11.27;;
16286;SDS011;8251;53.568;10.018;2024-03-08T08:01:15;19.67;;;10.50;;
16286;SDS011;8251;53.568;10.018;2024-03-08T08:03:43;23.47;;;10.77;;
16286;SDS011;8251;53.568;10.018;2024-03-08T08:06:10;19.80;;;9.93;;
16286;SDS011;8251;53.568;10.018;2024-03-08T08:08:41;20.37;;;10.83;;
16286;SDS011;8251;53.568;10.018;2024-03-08T08:11:07;20.00;;;10.57;;
16286;SDS011;8251;53.568;10.018;2024-03-08T08:13:40;20.20;;;11.17;;
16286;SDS011;8251;53.568;10.018;2024-03-08T08:16:10;21.03;;;11.17;;
16286;SDS011;8251;53.568;10.018;2024-03-08T08:18:42;18.87;;;10.57;;
16286;SDS011;8251;53.568;10.018;2024-03-08T08:21:13;21.90;;;11.30;;
16286;SDS011;8251;53.568;10.018;2024-03-08T08:23:39;17.50;;;11.27;;
16286;SDS011;8251;53.568;10.018;2024-03-08T08:26:08;20.70;;;11.47;;
16286;SDS011;8251;53.568;10.018;2024-03-08T08:28:39;17.80;;;10.70;;
16286;SDS011;8251;53.568;10.018;2024-03-08T08:31:09;21.37;;;12.23;;
16286;SDS011;8251;53.568;10.018;2024-03-08T08:33:38;18.70;;;10.57;;
16286;SDS011;8251;53.568;10.018;2024-03-08T08:36:08;19.80;;;11.47;;
16286;SDS011;8251;53.568;10.018;2024-03-08T08:38:38;17.40;;;11.43;;
16286;SDS011;8251;53.568;10.018;2024-03-08T08:41:05;20.17;;;12.47;;
16286;SDS011;8251;53.568;10.018;2024-03-08T08:43:32;17.33;;;11.00;;
16286;SDS011;8251;53.568;10.018;2024-03-08T08:46:00;18.83;;;10.70;;
16286;SDS011;8251;53.568;10.018;2024-03-08T08:48:28;16.43;;;10.60;;
16286;SDS011;8251;53.568;10.018;2024-03-08T08:50:56;20.30;;;11.83;;
16286;SDS011;8251;53.568;10.018;2024-03-08T08:53:22;18.03;;;10.63;;
16286;SDS011;8251;53.568;10.018;2024-03-08T08:55:49;15.30;;;10.23;;
16286;SDS011;8251;53.568;10.018;2024-03-08T08:58:18;20.23;;;11.60;;
16286;SDS011;8251;53.568;10.018;2024-03-08T09:00:45;17.37;;;10.93;;
16286;SDS011;8251;53.568;10.018;2024-03-08T09:03:14;22.43;;;11.70;;
16286;SDS011;8251;53.568;10.018;2024-03-08T09:05:45;20.77;;;11.90;;
16286;SDS011;8251;53.568;10.018;2024-03-08T09:08:12;16.10;;;11.20;;
16286;SDS011;8251;53.568;10.018;2024-03-08T09:10:39;19.33;;;11.97;;
16286;SDS011;8251;53.568;10.018;2024-03-08T09:13:06;17.67;;;10.37;;
16286;SDS011;8251;53.568;10.018;2024-03-08T09:15:35;17.53;;;11.00;;
16286;SDS011;8251;53.568;10.018;2024-03-08T09:18:01;20.17;;;12.77;;
16286;SDS011;8251;53.568;10.018;2024-03-08T09:20:32;21.10;;;13.07;;
16286;SDS011;8251;53.568;10.018;2024-03-08T09:22:59;20.17;;;10.73;;
16286;SDS011;8251;53.568;10.018;2024-03-08T09:25:26;21.50;;;12.07;;
16286;SDS011;8251;53.568;10.018;2024-03-08T09:27:53;21.53;;;11.57;;
16286;SDS011;8251;53.568;10.018;2024-03-08T09:30:20;21.13;;;11.90;;
16286;SDS011;8251;53.568;10.018;2024-03-08T09:32:47;20.80;;;11.43;;
16286;SDS011;8251;53.568;10.018;2024-03-08T09:35:16;17.67;;;10.73;;
16286;SDS011;8251;53.568;10.018;2024-03-08T09:37:44;20.40;;;11.13;;
16286;SDS011;8251;53.568;10.018;2024-03-08T09:40:12;20.97;;;12.10;;
16286;SDS011;8251;53.568;10.018;2024-03-08T09:42:40;23.43;;;10.73;;
16286;SDS011;8251;53.568;10.018;2024-03-08T09:45:08;16.03;;;10.67;;
16286;SDS011;8251;53.568;10.018;2024-03-08T09:47:36;23.33;;;10.53;;
16286;SDS011;8251;53.568;10.018;2024-03-08T09:50:05;17.70;;;10.20;;
16286;SDS011;8251;53.568;10.018;2024-03-08T09:52:34;21.00;;;10.97;;
16286;SDS011;8251;53.568;10.018;2024-03-08T09:55:04;19.17;;;11.97;;
16286;SDS011;8251;53.568;10.018;2024-03-08T09:57:32;17.70;;;10.77;;
16286;SDS011;8251;53.568;10.018;2024-03-08T09:59:59;19.83;;;11.33;;
16286;SDS011;8251;53.568;10.018;2024-03-08T10:02:26;19.03;;;11.07;;
16286;SDS011;8251;53.568;10.018;2024-03-08T10:04:53;19.87;;;12.23;;
16286;SDS011;8251;53.568;10.018;2024-03-08T10:07:20;26.23;;;11.10;;
16286;SDS011;8251;53.568;10.018;2024-03-08T10:09:47;21.53;;;10.80;;
16286;SDS011;8251;53.568;10.018;2024-03-08T10:12:20;17.20;;;10.60;;
16286;SDS011;8251;53.568;10.018;2024-03-08T10:14:47;20.33;;;10.47;;
16286;SDS011;8251;53.568;10.018;2024-03-08T10:17:13;21.03;;;10.07;;
16286;SDS011;8251;53.568;10.018;2024-03-08T10:19:47;19.07;;;12.43;;
16286;SDS011;8251;53.568;10.018;2024-03-08T10:22:16;18.20;;;10.47;;
16286;SDS011;8251;53.568;10.018;2024-03-08T10:24:44;19.87;;;11.30;;
16286;SDS011;8251;53.568;10.018;2024-03-08T10:27:11;16.13;;;9.70;;
16286;SDS011;8251;53.568;10.018;2024-03-08T10:29:40;17.83;;;10.70;;
16286;SDS011;8251;53.568;10.018;2024-03-08T10:32:09;18.13;;;10.17;;
16286;SDS011;8251;53.568;10.018;2024-03-08T10:34:37;16.63;;;9.80;;
16286;SDS011;8251;53.568;10.018;2024-03-08T10:37:04;22.23;;;11.03;;
16286;SDS011;8251;53.568;10.018;2024-03-08T10:39:32;15.23;;;9.57;;
16286;SDS011;8251;53.568;10.018;2024-03-08T10:42:02;17.67;;;10.37;;
16286;SDS011;8251;53.568;10.018;2024-03-08T10:44:39;17.70;;;10.30;;
16286;SDS011;8251;53.568;10.018;2024-03-08T10:47:17;16.90;;;8.83;;
16286;SDS011;8251;53.568;10.018;2024-03-08T10:49:50;14.93;;;9.63;;
16286;SDS011;8251;53.568;10.018;2024-03-08T10:52:20;14.33;;;9.47;;
16286;SDS011;8251;53.568;10.018;2024-03-08T10:54:48;16.13;;;9.80;;
16286;SDS011;8251;53.568;10.018;2024-03-08T10:57:18;16.67;;;9.67;;
16286;SDS011;8251;53.568;10.018;2024-03-08T10:59:48;19.17;;;9.60;;
16286;SDS011;8251;53.568;10.018;2024-03-08T11:02:15;20.07;;;10.20;;
16286;SDS011;8251;53.568;10.018;2024-03-08T11:04:50;16.90;;;9.97;;
16286;SDS011;8251;53.568;10.018;2024-03-08T11:07:18;16.40;;;8.87;;
16286;SDS011;8251;53.568;10.018;2024-03-08T11:09:47;14.57;;;8.93;;
16286;SDS011;8251;53.568;10.018;2024-03-08T11:12:24;17.13;;;9.90;;
16286;SDS011;8251;53.568;10.018;2024-03-08T11:14:55;15.13;;;8.43;;
16286;SDS011;8251;53.568;10.018;2024-03-08T11:17:26;15.30;;;9.43;;
16286;SDS011;8251;53.568;10.018;2024-03-08T11:20:10;18.60;;;9.30;;
16286;SDS011;8251;53.568;10.018;2024-03-08T11:22:41;16.20;;;9.63;;
16286;SDS011;8251;53.568;10.018;2024-03-08T11:28:08;13.50;;;8.53;;
16286;SDS011;8251;53.568;10.018;2024-03-08T11:30:44;15.53;;;9.67;;
16286;SDS011;8251;53.568;10.018;2024-03-08T11:33:13;16.37;;;9.20;;
16286;SDS011;8251;53.568;10.018;2024-03-08T11:35:41;15.40;;;9.17;;
16286;SDS011;8251;53.568;10.018;2024-03-08T11:38:11;15.30;;;8.53;;
16286;SDS011;8251;53.568;10.018;2024-03-08T11:40:39;16.20;;;8.80;;
16286;SDS011;8251;53.568;10.018;2024-03-08T11:43:07;17.73;;;8.43;;
16286;SDS011;8251;53.568;10.018;2024-03-08T11:45:34;13.07;;;8.43;;
16286;SDS011;8251;53.568;10.018;2024-03-08T11:48:03;14.57;;;8.73;;
16286;SDS011;8251;53.568;10.018;2024-03-08T11:50:30;15.47;;;8.10;;
16286;SDS011;8251;53.568;10.018;2024-03-08T11:53:02;14.77;;;8.63;;
16286;SDS011;8251;53.568;10.018;2024-03-08T11:55:30;12.50;;;7.73;;
16286;SDS011;8251;53.568;10.018;2024-03-08T11:58:01;14.27;;;8.17;;
16286;SDS011;8251;53.568;10.018;2024-03-08T12:00:29;15.87;;;8.50;;
16286;SDS011;8251;53.568;10.018;2024-03-08T12:03:04;17.67;;;9.07;;
16286;SDS011;8251;53.568;10.018;2024-03-08T12:05:32;13.67;;;8.37;;
16286;SDS011;8251;53.568;10.018;2024-03-08T12:08:00;15.40;;;8.10;;
16286;SDS011;8251;53.568;10.018;2024-03-08T12:10:28;15.87;;;8.47;;
16286;SDS011;8251;53.568;10.018;2024-03-08T12:12:56;12.37;;;7.30;;
16286;SDS011;8251;53.568;10.018;2024-03-08T12:15:25;12.03;;;7.63;;
16286;SDS011;8251;53.568;10.018;2024-03-08T12:17:53;15.00;;;9.10;;
16286;SDS011;8251;53.568;10.018;2024-03-08T12:20:23;14.60;;;8.27;;
16286;SDS011;8251;53.568;10.018;2024-03-08T12:22:51;13.23;;;7.90;;
16286;SDS011;8251;53.568;10.018;2024-03-08T12:25:21;14.97;;;9.30;;
16286;SDS011;8251;53.568;10.018;2024-03-08T12:27:48;14.23;;;9.13;;
16286;SDS011;8251;53.568;10.018;2024-03-08T12:30:18;13.03;;;8.30;;
16286;SDS011;8251;53.568;10.018;2024-03-08T12:32:48;14.10;;;8.17;;
16286;SDS011;8251;53.568;10.018;2024-03-08T12:35:18;15.37;;;8.47;;
16286;SDS011;8251;53.568;10.018;2024-03-08T12:37:48;16.37;;;8.23;;
16286;SDS011;8251;53.568;10.018;2024-03-08T12:40:18;13.27;;;8.33;;
16286;SDS011;8251;53.568;10.018;2024-03-08T12:42:46;15.40;;;7.97;;
16286;SDS011;8251;53.568;10.018;2024-03-08T12:45:13;14.63;;;8.13;;
16286;SDS011;8251;53.568;10.018;2024-03-08T12:47:40;14.00;;;7.83;;
16286;SDS011;8251;53.568;10.018;2024-03-08T12:50:08;17.47;;;9.47;;
16286;SDS011;8251;53.568;10.018;2024-03-08T12:52:36;14.03;;;7.67;;
16286;SDS011;8251;53.568;10.018;2024-03-08T12:55:04;14.87;;;8.20;;
16286;SDS011;8251;53.568;10.018;2024-03-08T12:57:33;14.52;;;9.80;;
16286;SDS011;8251;53.568;10.018;2024-03-08T13:00:03;13.60;;;8.23;;
16286;SDS011;8251;53.568;10.018;2024-03-08T13:02:38;13.40;;;8.53;;
16286;SDS011;8251;53.568;10.018;2024-03-08T13:05:05;12.67;;;7.93;;
16286;SDS011;8251;53.568;10.018;2024-03-08T13:07:34;15.93;;;8.73;;
16286;SDS011;8251;53.568;10.018;2024-03-08T13:10:05;17.53;;;9.23;;
16286;SDS011;8251;53.568;10.018;2024-03-08T13:12:34;16.77;;;9.43;;
16286;SDS011;8251;53.568;10.018;2024-03-08T13:15:03;17.30;;;8.20;;
16286;SDS011;8251;53.568;10.018;2024-03-08T13:17:33;14.23;;;8.77;;
16286;SDS011;8251;53.568;10.018;2024-03-08T13:20:03;16.57;;;7.67;;
16286;SDS011;8251;53.568;10.018;2024-03-08T13:22:31;16.20;;;8.73;;
16286;SDS011;8251;53.568;10.018;2024-03-08T13:24:58;13.63;;;8.00;;
16286;SDS011;8251;53.568;10.018;2024-03-08T13:27:27;13.47;;;8.10;;
16286;SDS011;8251;53.568;10.018;2024-03-08T13:29:56;12.40;;;7.27;;
16286;SDS011;8251;53.568;10.018;2024-03-08T13:32:23;13.70;;;7.70;;
16286;SDS011;8251;53.568;10.018;2024-03-08T13:34:50;12.43;;;7.67;;
16286;SDS011;8251;53.568;10.018;2024-03-08T13:37:17;11.87;;;7.10;;
16286;SDS011;8251;53.568;10.018;2024-03-08T13:39:44;12.67;;;7.83;;
16286;SDS011;8251;53.568;10.018;2024-03-08T13:42:11;11.70;;;7.00;;
16286;SDS011;8251;53.568;10.018;2024-03-08T13:44:45;11.97;;;6.90;;
16286;SDS011;8251;53.568;10.018;2024-03-08T13:47:13;15.23;;;8.63;;
16286;SDS011;8251;53.568;10.018;2024-03-08T13:49:39;13.17;;;7.70;;
16286;SDS011;8251;53.568;10.018;2024-03-08T13:52:08;15.80;;;8.17;;
16286;SDS011;8251;53.568;10.018;2024-03-08T13:54:35;12.43;;;7.53;;
16286;SDS011;8251;53.568;10.018;2024-03-08T13:57:03;12.43;;;7.53;;
16286;SDS011;8251;53.568;10.018;2024-03-08T13:59:32;14.63;;;8.13;;
16286;SDS011;8251;53.568;10.018;2024-03-08T14:02:01;11.57;;;6.93;;
16286;SDS011;8251;53.568;10.018;2024-03-08T14:04:29;13.90;;;7.40;;
16286;SDS011;8251;53.568;10.018;2024-03-08T14:06:56;16.17;;;8.40;;
16286;SDS011;8251;53.568;10.018;2024-03-08T14:09:28;11.80;;;7.10;;
16286;SDS011;8251;53.568;10.018;2024-03-08T14:11:56;11.77;;;6.40;;
16286;SDS011;8251;53.568;10.018;2024-03-08T14:14:23;11.87;;;6.90;;
16286;SDS011;8251;53.568;10.018;2024-03-08T14:16:50;12.87;;;7.10;;
16286;SDS011;8251;53.568;10.018;2024-03-08T14:19:21;11.33;;;6.80;;
16286;SDS011;8251;53.568;10.018;2024-03-08T14:21:48;20.13;;;7.13;;
16286;SDS011;8251;53.568;10.018;2024-03-08T14:24:18;13.03;;;6.87;;
16286;SDS011;8251;53.568;10.018;2024-03-08T14:26:45;11.87;;;7.37;;
16286;SDS011;8251;53.568;10.018;2024-03-08T14:29:14;11.57;;;7.00;;
16286;SDS011;8251;53.568;10.018;2024-03-08T14:31:40;11.07;;;6.80;;
16286;SDS011;8251;53.568;10.018;2024-03-08T14:34:08;13.27;;;7.40;;
16286;SDS011;8251;53.568;10.018;2024-03-08T14:36:36;17.20;;;7.17;;
16286;SDS011;8251;53.568;10.018;2024-03-08T14:39:04;13.63;;;7.40;;
16286;SDS011;8251;53.568;10.018;2024-03-08T14:41:32;10.63;;;6.00;;